Accueil
METAR-TAF:

METAR-TAF

Aéroports :

Base aérienne

Niederstetten, Allemagne

latitude: 49-24N, longitude: 009-58E, altitude: 468 m

Observation

Le bulletin a été fait il y a 13 minutes, à 05:20 UTC
Vent 2 kt de ouest/sud-ouest
Température 10°C
Humidité 87%
Pression 1022 hPa
Visibilité 10 km ou plus
Quelques nuages à une hauteur de 7000 ft
Nuages épars à une hauteur de 25000 ft

METAR: ETHN 240520Z 25002KT 9999 FEW070 SCT250 10/08 Q1022 BLU+

Heure: 07:33 (05:33 UTC)


TAF: absent

Observations et prévisions météorologiques de plus de 4000 aéroports (messages METAR et TAF).

Les stations disponibles sont représentées par des disques jaunes et rouges sur la carte.

Passer la souris dessus pour voir le nom de la station.

Cliquer dessus pour voir les observations et prévisions météorologiques.

Pour changer de carte: cliquez sur les boutons verts avec une croix noire pour zoomer, sur le bouton vert avec un tiret pour effectuer un zoom arrière, ou sur les flèches vertes pour les cartes adjacentes.


METAR-TAF: